Time;durP1;ratioP1;P1;durP2;ratioP2;P2;SDS_P1;SDS_P2;PMS_P1;PMS_P2;Temp;Humidity;BMP_temperature;BMP_pressure;BME280_temperature;BME280_humidity;BME280_pressure;Samples;Min_cycle;Max_cycle;Signal;HPM_P1;HPM_P2
2023/10/12 00:01:58;;;;;;;7.80;4.70;;;20.60;99.90;;;;;;4971559;28;20436;-78
2023/10/12 00:04:43;;;;;;;10.50;4.30;;;20.60;99.90;;;;;;4972259;28;20463;-80
2023/10/12 00:07:15;;;;;;;10.73;4.27;;;20.60;99.90;;;;;;4972797;28;20443;-79
2023/10/12 00:09:47;;;;;;;5.53;4.43;;;20.50;99.90;;;;;;4973281;28;20497;-80
2023/10/12 00:12:23;;;;;;;8.20;4.33;;;20.50;99.90;;;;;;4972968;28;20436;-79
2023/10/12 00:14:54;;;;;;;9.40;4.63;;;20.50;99.90;;;;;;4970751;28;20800;-79
2023/10/12 00:17:20;;;;;;;22.33;4.83;;;20.50;99.90;;;;;;4974372;28;20451;-79
2023/10/12 00:19:46;;;;;;;12.43;4.63;;;20.50;99.90;;;;;;4972632;28;20862;-79
2023/10/12 00:22:15;;;;;;;10.00;4.63;;;20.50;99.90;;;;;;4972932;28;20472;-80
2023/10/12 00:24:40;;;;;;;11.70;5.07;;;20.50;99.90;;;;;;4973497;28;20637;-79
2023/10/12 00:27:11;;;;;;;10.53;4.90;;;20.40;99.90;;;;;;4974260;28;20440;-79
2023/10/12 00:29:40;;;;;;;10.10;5.07;;;20.40;99.90;;;;;;4973348;28;20196;-79
2023/10/12 00:32:09;;;;;;;9.57;3.97;;;20.40;99.90;;;;;;4969829;28;20459;-80
2023/10/12 00:34:37;;;;;;;11.70;5.03;;;20.40;99.90;;;;;;4973697;28;20456;-79
2023/10/12 00:37:04;;;;;;;9.67;4.67;;;20.40;99.90;;;;;;4973196;28;20440;-80
2023/10/12 00:39:58;;;;;;;11.40;4.63;;;20.40;99.90;;;;;;4973893;28;20559;-79
2023/10/12 00:42:17;;;;;;;7.67;4.33;;;20.30;99.90;;;;;;4966007;28;20452;-79
2023/10/12 00:44:43;;;;;;;7.97;4.77;;;20.30;99.90;;;;;;4973565;28;20896;-79
2023/10/12 00:47:18;;;;;;;12.47;5.17;;;20.30;99.90;;;;;;4973331;28;20451;-80
2023/10/12 00:49:48;;;;;;;11.00;5.10;;;20.30;99.90;;;;;;4970490;28;20192;-79
2023/10/12 00:52:22;;;;;;;11.53;4.40;;;20.20;99.90;;;;;;4967547;28;20432;-79
2023/10/12 00:54:55;;;;;;;9.03;4.93;;;20.20;99.90;;;;;;4972112;28;20459;-79
2023/10/12 00:57:22;;;;;;;11.63;5.00;;;20.20;99.90;;;;;;4973283;28;20926;-80
2023/10/12 00:59:50;;;;;;;12.10;5.80;;;20.20;99.90;;;;;;4976930;28;20911;-80
2023/10/12 01:02:17;;;;;;;9.37;4.93;;;20.10;99.90;;;;;;4975975;28;20435;-80
2023/10/12 01:04:44;;;;;;;8.10;4.60;;;20.10;99.90;;;;;;4976585;28;21207;-80
2023/10/12 01:07:19;;;;;;;10.50;4.90;;;20.10;99.90;;;;;;4973476;28;20448;-80
2023/10/12 01:09:48;;;;;;;13.23;4.97;;;20.10;99.90;;;;;;4976022;28;20443;-79
2023/10/12 01:12:14;;;;;;;12.37;5.07;;;20.10;99.90;;;;;;4971023;28;20525;-80
2023/10/12 01:14:48;;;;;;;11.17;5.57;;;20.00;99.90;;;;;;4977037;28;20462;-79
2023/10/12 01:17:25;;;;;;;14.00;4.67;;;20.00;99.90;;;;;;4969331;28;20827;-79
2023/10/12 01:19:51;;;;;;;8.97;4.63;;;20.00;99.90;;;;;;4976144;28;20528;-79
2023/10/12 01:22:25;;;;;;;9.67;4.53;;;19.90;99.90;;;;;;4974159;28;20498;-77
2023/10/12 01:27:21;;;;;;;11.67;5.07;;;19.80;99.90;;;;;;4975746;28;20534;-78
2023/10/12 01:29:47;;;;;;;6.83;4.53;;;19.80;99.90;;;;;;4972644;28;20879;-80
2023/10/12 01:34:44;;;;;;;7.60;4.70;;;19.70;99.90;;;;;;4976251;28;20899;-78
2023/10/12 01:37:41;;;;;;;10.10;5.23;;;19.70;99.90;;;;;;4973773;28;20208;-79
2023/10/12 01:42:43;;;;;;;13.57;5.53;;;19.60;99.90;;;;;;4975066;28;20542;-78
2023/10/12 01:45:44;;;;;;;23.17;6.10;;;19.60;99.90;;;;;;4975322;28;20472;-78
2023/10/12 01:48:16;;;;;;;12.83;5.30;;;19.50;99.90;;;;;;4972950;28;20463;-79
2023/10/12 01:50:41;;;;;;;8.97;5.30;;;19.40;1.00;;;;;;4974778;28;20447;-78
2023/10/12 01:53:22;;;;;;;7.57;5.03;;;19.40;1.00;;;;;;4974974;28;20456;-79
2023/10/12 01:55:50;;;;;;;9.53;5.30;;;19.30;1.00;;;;;;4970816;28;20650;-79
2023/10/12 01:58:20;;;;;;;10.83;5.07;;;19.30;1.00;;;;;;4972031;28;20468;-79
2023/10/12 02:00:52;;;;;;;11.13;5.10;;;19.20;1.00;;;;;;4974753;28;20818;-79
2023/10/12 02:04:05;;;;;;;10.27;5.43;;;19.20;1.00;;;;;;4972872;28;20452;-79
2023/10/12 02:06:13;;;;;;;10.00;6.43;;;19.10;1.00;;;;;;4967305;28;20958;-79
2023/10/12 02:11:12;;;;;;;18.63;6.10;;;19.00;1.00;;;;;;4974302;28;21311;-79
2023/10/12 02:13:41;;;;;;;12.57;6.10;;;19.00;97.30;;;;;;4974782;28;20482;-79
2023/10/12 02:16:07;;;;;;;14.30;6.17;;;18.90;99.90;;;;;;4970831;28;20455;-80
2023/10/12 02:18:35;;;;;;;12.43;6.70;;;18.80;99.90;;;;;;4973417;28;20476;-79
2023/10/12 02:24:19;;;;;;;19.40;7.50;;;18.60;1.00;;;;;;4974766;28;20475;-79
2023/10/12 02:31:39;;;;;;;15.23;8.03;;;18.50;53.10;;;;;;4971394;28;20478;-79
2023/10/12 02:34:06;;;;;;;12.77;8.90;;;18.40;99.90;;;;;;4973971;28;20464;-78
2023/10/12 02:36:31;;;;;;;9.53;6.63;;;18.40;92.90;;;;;;4973441;28;20455;-78
2023/10/12 02:38:59;;;;;;;10.17;6.97;;;18.30;99.90;;;;;;4974203;28;20471;-79
2023/10/12 02:41:26;;;;;;;7.40;6.40;;;18.30;99.90;;;;;;4973420;28;20272;-79
2023/10/12 02:43:54;;;;;;;13.13;7.90;;;18.20;99.90;;;;;;4974297;28;20566;-78
2023/10/12 02:46:23;;;;;;;20.90;7.23;;;18.20;1.00;;;;;;4973083;28;20440;-78
2023/10/12 02:48:51;;;;;;;10.73;7.40;;;18.10;1.00;;;;;;4971074;28;20450;-80
2023/10/12 02:51:18;;;;;;;18.07;7.67;;;18.10;1.00;;;;;;4974466;28;20494;-79
2023/10/12 02:53:46;;;;;;;9.20;7.33;;;18.10;1.00;;;;;;4973198;28;20559;-79
2023/10/12 02:56:12;;;;;;;10.60;7.10;;;18.00;99.90;;;;;;4974119;28;20490;-78
2023/10/12 02:58:37;;;;;;;11.83;8.30;;;18.00;99.90;;;;;;4974229;28;20472;-80
2023/10/12 03:01:21;;;;;;;17.10;8.50;;;18.00;1.00;;;;;;4972787;28;20188;-80
2023/10/12 03:03:54;;;;;;;15.47;7.20;;;18.00;1.00;;;;;;4973549;28;20209;-79
2023/10/12 03:06:31;;;;;;;21.63;7.90;;;18.00;1.00;;;;;;4971818;28;20435;-81
2023/10/12 03:11:26;;;;;;;13.77;8.03;;;17.90;7.60;;;;;;4973211;28;20444;-80
2023/10/12 03:14:13;;;;;;;22.83;8.60;;;17.90;1.00;;;;;;4974485;28;20451;-80
2023/10/12 03:16:43;;;;;;;15.47;8.50;;;17.90;12.70;;;;;;4973553;28;20436;-80
2023/10/12 03:19:23;;;;;;;11.13;8.03;;;17.90;99.90;;;;;;4973305;28;20478;-80
2023/10/12 03:21:51;;;;;;;12.10;7.47;;;17.90;99.90;;;;;;4974040;28;20436;-80
2023/10/12 03:24:17;;;;;;;16.07;7.93;;;17.90;1.00;;;;;;4970554;28;21000;-80
2023/10/12 03:29:50;;;;;;;12.07;6.50;;;17.80;99.90;;;;;;4927903;28;20463;-80
2023/10/12 03:32:22;;;;;;;11.40;8.10;;;17.80;99.90;;;;;;4974091;28;20446;-80
2023/10/12 03:37:18;;;;;;;16.20;7.83;;;17.70;99.90;;;;;;4975444;28;20440;-80
2023/10/12 03:45:34;;;;;;;12.70;8.60;;;17.70;99.90;;;;;;4941147;28;20435;-80
2023/10/12 03:50:58;;;;;;;13.63;8.37;;;17.70;99.90;;;;;;4975021;28;20506;-79
2023/10/12 03:53:34;;;;;;;12.60;8.03;;;17.70;99.90;;;;;;4973798;28;20494;-80
2023/10/12 03:56:01;;;;;;;10.63;8.57;;;17.70;1.00;;;;;;4973512;28;21019;-80
2023/10/12 03:58:28;;;;;;;9.97;8.03;;;17.60;1.00;;;;;;4971338;28;20472;-79
2023/10/12 04:03:40;;;;;;;15.47;8.63;;;17.70;1.00;;;;;;4974417;28;20455;-80
2023/10/12 04:06:23;;;;;;;15.90;8.30;;;17.70;1.00;;;;;;4970509;28;20427;-80
2023/10/12 04:08:54;;;;;;;11.17;7.63;;;17.70;1.00;;;;;;4969246;28;20531;-80
2023/10/12 04:15:06;;;;;;;12.90;8.37;;;17.70;45.00;;;;;;4974041;28;21083;-80
2023/10/12 04:17:09;;;;;;;10.93;8.23;;;17.70;30.20;;;;;;4958624;28;20498;-80
2023/10/12 04:19:35;;;;;;;16.70;8.57;;;17.70;88.90;;;;;;4971944;28;20467;-80
2023/10/12 04:24:48;;;;;;;14.50;9.40;;;17.60;1.00;;;;;;4974184;28;20514;-79
2023/10/12 04:28:10;;;;;;;9.30;8.00;;;17.60;1.00;;;;;;4972428;28;20444;-79
2023/10/12 04:30:05;;;;;;;16.23;8.90;;;17.60;99.90;;;;;;4959355;28;20811;-79
2023/10/12 04:35:21;;;;;;;20.23;9.93;;;17.60;1.00;;;;;;4974117;28;20491;-79
2023/10/12 04:37:47;;;;;;;18.77;9.60;;;17.50;1.00;;;;;;4975937;28;20466;-79
2023/10/12 04:43:00;;;;;;;19.13;9.10;;;17.50;99.90;;;;;;4970338;28;20532;-79
2023/10/12 04:45:28;;;;;;;13.03;8.93;;;17.50;99.90;;;;;;4976770;28;20516;-78
2023/10/12 04:48:17;;;;;;;19.27;8.57;;;17.50;99.90;;;;;;4976699;28;20506;-79
2023/10/12 04:50:52;;;;;;;14.83;9.20;;;17.40;1.00;;;;;;4974048;28;20483;-80
2023/10/12 04:53:19;;;;;;;17.37;9.27;;;17.40;1.00;;;;;;4975699;28;20462;-79
2023/10/12 04:55:47;;;;;;;15.73;8.70;;;17.40;1.00;;;;;;4976054;28;20467;-80
2023/10/12 04:58:17;;;;;;;15.97;10.03;;;17.40;1.00;;;;;;4972044;28;20474;-78
2023/10/12 05:00:49;;;;;;;22.50;9.80;;;17.40;9.60;;;;;;4975749;28;20478;-78
2023/10/12 05:03:35;;;;;;;12.40;8.50;;;17.40;53.50;;;;;;4976186;28;20483;-79
2023/10/12 05:06:04;;;;;;;11.90;8.40;;;17.30;97.20;;;;;;4975474;28;20439;-79
2023/10/12 05:08:32;;;;;;;15.67;9.37;;;17.30;99.90;;;;;;4973429;28;20443;-80
2023/10/12 05:10:57;;;;;;;12.07;8.77;;;17.30;99.90;;;;;;4976246;28;20442;-79
2023/10/12 05:13:23;;;;;;;14.37;9.00;;;17.30;99.90;;;;;;4974666;28;20554;-79
2023/10/12 05:15:54;;;;;;;17.43;8.73;;;17.30;99.90;;;;;;4976597;28;20559;-79
2023/10/12 05:18:21;;;;;;;18.93;9.37;;;17.30;99.90;;;;;;4975878;28;20251;-78
2023/10/12 05:20:47;;;;;;;14.40;9.50;;;17.30;99.90;;;;;;4973182;28;20475;-79
2023/10/12 05:23:13;;;;;;;19.00;9.30;;;17.30;99.90;;;;;;4972519;28;20463;-79
2023/10/12 05:28:28;;;;;;;15.33;8.63;;;17.20;99.90;;;;;;4972105;28;20945;-78
2023/10/12 05:30:55;;;;;;;11.30;8.47;;;17.20;99.90;;;;;;4971114;28;20898;-80
2023/10/12 05:36:08;;;;;;;13.33;8.80;;;17.20;99.90;;;;;;4976617;28;20877;-79
2023/10/12 05:38:39;;;;;;;18.20;9.03;;;17.20;99.90;;;;;;4976433;28;20550;-79
2023/10/12 05:41:09;;;;;;;13.80;8.73;;;17.20;99.90;;;;;;4973928;28;20467;-79
2023/10/12 05:43:40;;;;;;;11.37;8.00;;;17.20;99.90;;;;;;4975842;28;20448;-79
2023/10/12 05:46:13;;;;;;;16.60;9.40;;;17.10;99.90;;;;;;4977236;28;20416;-79
2023/10/12 05:48:45;;;;;;;14.80;9.00;;;17.20;99.90;;;;;;4977541;28;20423;-80
2023/10/12 05:51:13;;;;;;;14.07;10.23;;;17.20;99.90;;;;;;4978921;28;20427;-79
2023/10/12 05:53:38;;;;;;;20.13;10.30;;;17.20;99.90;;;;;;4970163;28;20470;-80
2023/10/12 05:56:06;;;;;;;13.63;10.13;;;17.20;99.90;;;;;;4976340;28;20428;-80
2023/10/12 05:58:38;;;;;;;19.70;11.67;;;17.20;99.90;;;;;;4976882;28;20204;-80
2023/10/12 06:01:10;;;;;;;15.90;9.73;;;17.20;99.90;;;;;;4973299;28;20459;-80
2023/10/12 06:03:39;;;;;;;14.70;10.30;;;17.20;99.90;;;;;;4977122;28;20440;-80
2023/10/12 06:06:06;;;;;;;14.30;10.00;;;17.20;99.90;;;;;;4976990;28;20486;-80
2023/10/12 06:08:33;;;;;;;14.90;9.53;;;17.30;90.50;;;;;;4977564;28;20447;-80
2023/10/12 06:10:59;;;;;;;14.67;10.47;;;17.30;1.00;;;;;;4978341;28;20416;-80
2023/10/12 06:13:31;;;;;;;16.90;10.63;;;17.30;1.00;;;;;;4976627;28;20517;-79
2023/10/12 06:15:56;;;;;;;17.53;11.17;;;17.40;1.00;;;;;;4971963;28;20568;-80
2023/10/12 06:18:24;;;;;;;19.27;10.93;;;17.40;1.00;;;;;;4977265;28;20459;-80
2023/10/12 06:20:58;;;;;;;13.50;10.40;;;17.40;1.00;;;;;;4974645;28;20536;-80
2023/10/12 06:23:24;;;;;;;18.33;11.33;;;17.40;1.00;;;;;;4973711;28;20488;-80
2023/10/12 06:25:49;;;;;;;13.37;10.27;;;17.40;1.00;;;;;;4978208;28;20454;-80
2023/10/12 06:28:17;;;;;;;17.10;11.60;;;17.40;1.00;;;;;;4990475;28;20980;-81
2023/10/12 06:30:44;;;;;;;15.27;10.20;;;17.40;99.90;;;;;;4976433;28;20604;-81
2023/10/12 06:33:14;;;;;;;12.90;9.43;;;17.40;99.90;;;;;;4976596;28;21043;-82
2023/10/12 06:36:00;;;;;;;12.63;9.30;;;17.40;99.90;;;;;;4976854;28;20440;-81
2023/10/12 06:38:47;;;;;;;21.10;10.20;;;17.40;99.90;;;;;;4973159;28;20472;-80
2023/10/12 06:43:58;;;;;;;17.10;11.27;;;17.50;99.90;;;;;;4977400;28;20866;-80
2023/10/12 06:46:35;;;;;;;15.17;10.50;;;17.50;99.90;;;;;;4973873;28;20448;-78
2023/10/12 06:49:00;;;;;;;17.40;9.50;;;17.50;99.90;;;;;;4977416;28;20180;-80
2023/10/12 06:51:28;;;;;;;16.03;8.80;;;17.50;99.90;;;;;;4976920;28;20467;-80
2023/10/12 06:54:05;;;;;;;15.27;8.80;;;17.50;99.90;;;;;;4977169;28;20205;-80
2023/10/12 06:56:31;;;;;;;10.60;7.97;;;17.50;99.90;;;;;;4976021;28;20467;-80
2023/10/12 06:59:13;;;;;;;15.13;8.77;;;17.50;99.90;;;;;;4977380;28;20463;-81
2023/10/12 07:04:13;;;;;;;14.43;10.13;;;17.60;99.90;;;;;;4972057;28;20472;-81
2023/10/12 07:06:40;;;;;;;18.83;9.20;;;17.60;99.90;;;;;;4977835;28;20467;-80
2023/10/12 07:09:08;;;;;;;23.10;10.47;;;17.60;99.90;;;;;;4977203;28;20432;-79
2023/10/12 07:11:38;;;;;;;19.20;9.10;;;17.60;99.90;;;;;;4970360;28;20432;-80
2023/10/12 07:14:05;;;;;;;13.73;9.50;;;17.60;99.90;;;;;;4969415;28;20462;-79
2023/10/12 07:16:36;;;;;;;13.80;8.93;;;17.60;99.90;;;;;;4972507;28;20516;-78
2023/10/12 07:19:16;;;;;;;14.80;8.93;;;17.60;99.90;;;;;;4974715;28;20543;-79
2023/10/12 07:21:41;;;;;;;31.47;9.80;;;17.60;99.90;;;;;;4989067;28;20432;-79
2023/10/12 07:24:07;;;;;;;14.00;9.07;;;17.70;1.00;;;;;;4974265;28;20227;-80
2023/10/12 07:26:33;;;;;;;14.23;8.03;;;17.80;1.00;;;;;;4973433;28;20216;-80
2023/10/12 07:29:07;;;;;;;14.07;8.27;;;17.80;1.00;;;;;;4973981;28;20213;-80
2023/10/12 07:31:41;;;;;;;14.63;8.47;;;17.90;1.00;;;;;;4973866;28;20258;-79
2023/10/12 07:34:13;;;;;;;15.80;9.60;;;17.90;99.90;;;;;;4970307;28;20460;-79
2023/10/12 07:39:17;;;;;;;12.03;8.40;;;18.00;1.00;;;;;;4973668;28;21004;-79
2023/10/12 07:41:49;;;;;;;12.00;8.43;;;18.00;1.00;;;;;;4974165;28;20450;-80
2023/10/12 07:44:15;;;;;;;14.50;7.73;;;18.10;1.00;;;;;;4969763;28;20460;-79
2023/10/12 07:46:42;;;;;;;13.73;8.37;;;18.10;99.90;;;;;;4974096;28;20432;-79
2023/10/12 07:49:22;;;;;;;16.43;7.93;;;18.10;99.90;;;;;;4972010;28;20491;-81
2023/10/12 07:51:59;;;;;;;11.60;8.03;;;18.20;6.10;;;;;;4970961;28;20531;-80
2023/10/12 07:54:46;;;;;;;17.60;9.60;;;18.20;48.80;;;;;;4971702;28;20558;-79
2023/10/12 07:57:10;;;;;;;11.53;7.17;;;18.20;1.00;;;;;;4970242;28;20893;-80
2023/10/12 07:59:38;;;;;;;10.70;7.23;;;18.20;29.10;;;;;;4986325;28;20562;-80
2023/10/12 08:02:08;;;;;;;11.63;7.40;;;18.20;33.40;;;;;;4972062;28;20588;-78
2023/10/12 08:04:34;;;;;;;12.00;6.80;;;18.20;68.90;;;;;;4972558;28;20953;-79
2023/10/12 08:07:06;;;;;;;11.63;6.67;;;18.20;1.00;;;;;;4968628;28;20526;-79
2023/10/12 08:11:58;;;;;;;16.40;8.23;;;18.20;1.00;;;;;;4967513;28;20846;-80
2023/10/12 08:19:55;;;;;;;12.07;7.80;;;18.30;1.00;;;;;;4964577;28;20267;-79
2023/10/12 08:22:29;;;;;;;11.50;7.70;;;18.30;1.00;;;;;;4974735;28;20474;-78
2023/10/12 08:24:58;;;;;;;11.97;7.47;;;18.30;6.00;;;;;;4972574;28;20534;-79
2023/10/12 08:27:24;;;;;;;13.23;7.80;;;18.40;1.00;;;;;;4969341;28;20533;-78
2023/10/12 08:32:27;;;;;;;10.10;7.03;;;18.50;99.90;;;;;;4968037;28;21027;-78
2023/10/12 08:37:35;;;;;;;14.53;7.50;;;18.60;1.00;;;;;;4965690;28;20459;-79
2023/10/12 08:40:18;;;;;;;13.70;7.70;;;18.60;1.00;;;;;;4969655;28;20564;-79
2023/10/12 08:42:55;;;;;;;15.80;7.50;;;18.60;1.00;;;;;;4969116;28;20433;-78
2023/10/12 08:45:24;;;;;;;15.93;8.27;;;18.60;1.00;;;;;;4961116;28;20435;-79
2023/10/12 08:47:53;;;;;;;12.77;7.47;;;18.60;1.00;;;;;;4969131;28;20447;-79
2023/10/12 08:52:51;;;;;;;12.30;8.07;;;18.70;99.90;;;;;;4966554;28;20439;-77
2023/10/12 08:55:24;;;;;;;12.70;8.43;;;18.80;99.90;;;;;;4966025;28;20271;-78
2023/10/12 08:58:18;;;;;;;13.80;7.47;;;18.80;1.00;;;;;;4968968;28;20447;-79
2023/10/12 09:01:23;;;;;;;12.83;7.10;;;18.90;1.00;;;;;;4967640;28;20838;-79
2023/10/12 09:03:40;;;;;;;11.07;7.33;;;19.00;99.90;;;;;;4966974;28;20463;-78
2023/10/12 09:09:00;;;;;;;11.73;7.57;;;19.20;99.90;;;;;;4955436;28;21074;-79
2023/10/12 09:11:33;;;;;;;14.17;8.37;;;19.40;1.00;;;;;;4975898;28;20420;-78
2023/10/12 09:13:59;;;;;;;11.23;7.10;;;19.50;1.00;;;;;;4975795;28;20511;-77
2023/10/12 09:16:26;;;;;;;14.80;7.70;;;19.70;99.90;;;;;;4975744;28;20844;-79
2023/10/12 09:18:59;;;;;;;13.20;7.50;;;19.80;99.90;;;;;;4968434;28;20463;-79
2023/10/12 09:23:58;;;;;;;12.40;7.90;;;20.20;1.00;;;;;;4977825;28;20492;-79
2023/10/12 09:26:34;;;;;;;13.07;7.37;;;20.40;1.00;;;;;;4975909;28;20510;-79
2023/10/12 09:36:53;;;;;;;10.30;7.27;;;21.10;99.90;;;;;;4979037;28;20997;-79
2023/10/12 09:39:24;;;;;;;20.10;7.37;;;21.10;68.60;;;;;;4978636;28;21052;-79
2023/10/12 09:41:59;;;;;;;10.23;6.53;;;21.10;43.40;;;;;;4975452;28;20877;-79
2023/10/12 09:44:27;;;;;;;10.10;7.00;;;21.20;40.90;;;;;;4974612;28;20559;-79
2023/10/12 09:46:55;;;;;;;12.90;7.07;;;21.20;1.00;;;;;;4979649;28;20483;-79
2023/10/12 09:49:22;;;;;;;9.47;6.40;;;21.30;1.00;;;;;;4977629;28;20428;-79
2023/10/12 09:51:54;;;;;;;12.77;7.10;;;21.30;1.00;;;;;;4979870;28;20428;-79
2023/10/12 09:54:28;;;;;;;13.50;7.20;;;21.40;1.00;;;;;;4978336;28;20443;-79
2023/10/12 09:57:16;;;;;;;11.93;7.57;;;21.40;1.00;;;;;;4978587;28;20432;-79
2023/10/12 09:59:51;;;;;;;10.67;7.37;;;21.40;1.00;;;;;;4979326;28;20476;-79
2023/10/12 10:02:27;;;;;;;14.90;7.30;;;21.50;1.00;;;;;;4975599;28;20482;-80
2023/10/12 10:05:10;;;;;;;16.00;6.87;;;21.80;1.00;;;;;;4975385;28;21041;-79
2023/10/12 10:07:40;;;;;;;14.60;6.37;;;22.30;1.00;;;;;;4976076;28;20462;-78
2023/10/12 10:10:16;;;;;;;10.03;6.27;;;22.60;1.00;;;;;;4969521;28;20412;-79
2023/10/12 10:12:42;;;;;;;10.10;6.50;;;22.70;1.00;;;;;;4976420;28;20443;-79
2023/10/12 10:15:16;;;;;;;8.67;6.40;;;22.80;1.00;;;;;;4976672;28;20436;-79
2023/10/12 10:17:48;;;;;;;9.60;6.67;;;22.80;1.00;;;;;;4976218;28;20458;-79
2023/10/12 10:22:56;;;;;;;9.87;6.40;;;23.00;99.90;;;;;;4976260;28;20512;-79
2023/10/12 10:25:23;;;;;;;11.20;6.30;;;22.80;99.90;;;;;;4976567;28;20585;-80
2023/10/12 10:27:49;;;;;;;11.87;7.17;;;22.70;99.90;;;;;;4976437;28;20427;-78
2023/10/12 10:30:36;;;;;;;10.50;6.07;;;22.60;99.90;;;;;;4973186;28;20500;-79
2023/10/12 10:33:12;;;;;;;11.00;7.23;;;22.40;99.90;;;;;;4976249;28;20216;-78
2023/10/12 10:35:57;;;;;;;13.97;6.77;;;22.30;99.90;;;;;;4972978;28;20440;-79
2023/10/12 10:38:30;;;;;;;10.67;6.30;;;22.20;1.00;;;;;;4969663;28;20467;-79
2023/10/12 10:41:05;;;;;;;17.30;7.00;;;22.20;1.00;;;;;;4975736;28;20431;-79
2023/10/12 10:43:37;;;;;;;9.70;6.13;;;22.30;1.00;;;;;;4973366;28;20454;-80
2023/10/12 10:46:09;;;;;;;12.03;6.60;;;22.50;1.00;;;;;;4975735;28;20504;-80
2023/10/12 10:48:38;;;;;;;12.30;6.27;;;22.60;99.90;;;;;;4975758;28;20428;-79
2023/10/12 10:51:18;;;;;;;14.00;6.77;;;22.90;99.90;;;;;;4973742;28;20860;-79
2023/10/12 10:53:52;;;;;;;9.97;6.73;;;23.10;99.90;;;;;;4969971;28;20981;-80
2023/10/12 10:56:35;;;;;;;13.37;6.00;;;23.20;99.90;;;;;;4975262;28;20443;-79
2023/10/12 10:59:06;;;;;;;15.07;6.53;;;23.30;99.90;;;;;;4975498;28;20846;-80
2023/10/12 11:01:31;;;;;;;11.37;6.73;;;23.30;99.90;;;;;;4975317;28;20431;-79
2023/10/12 11:03:58;;;;;;;10.83;6.20;;;23.40;99.90;;;;;;4974725;28;20816;-79
2023/10/12 11:06:27;;;;;;;10.80;6.73;;;23.30;99.90;;;;;;4974394;28;20259;-79
2023/10/12 11:09:14;;;;;;;12.23;6.20;;;23.20;99.90;;;;;;4974546;28;20535;-79
2023/10/12 11:11:48;;;;;;;10.80;5.93;;;23.10;99.90;;;;;;4972489;28;20506;-82
2023/10/12 11:14:17;;;;;;;10.67;6.63;;;23.00;99.90;;;;;;4975317;28;20474;-81
2023/10/12 11:16:46;;;;;;;10.67;6.37;;;23.00;99.90;;;;;;4974400;28;20929;-79
2023/10/12 11:19:12;;;;;;;9.83;6.20;;;23.20;99.90;;;;;;4967952;28;20989;-79
2023/10/12 11:21:46;;;;;;;9.97;5.57;;;23.40;99.90;;;;;;4975919;28;20420;-80
2023/10/12 11:24:14;;;;;;;9.80;5.90;;;23.50;99.90;;;;;;4975450;28;20879;-80
2023/10/12 11:26:54;;;;;;;15.23;5.97;;;23.60;99.90;;;;;;4972570;28;21017;-79
2023/10/12 11:29:22;;;;;;;7.77;4.97;;;23.50;99.90;;;;;;4976286;28;20432;-80
2023/10/12 11:32:08;;;;;;;8.00;4.60;;;23.40;99.90;;;;;;4971828;28;20451;-80
2023/10/12 11:34:35;;;;;;;9.20;5.90;;;23.10;99.90;;;;;;4976298;28;20442;-79
2023/10/12 11:37:01;;;;;;;9.30;5.43;;;22.90;99.90;;;;;;4976127;28;20794;-79
2023/10/12 11:39:30;;;;;;;9.50;5.90;;;22.90;99.90;;;;;;4976611;28;20460;-79
2023/10/12 11:42:12;;;;;;;8.33;5.30;;;22.90;99.90;;;;;;4974793;28;20191;-79
2023/10/12 11:44:42;;;;;;;10.03;5.40;;;22.90;99.90;;;;;;4975993;28;20463;-80
2023/10/12 11:47:08;;;;;;;10.37;5.00;;;23.00;99.90;;;;;;4977392;28;20462;-79
2023/10/12 11:50:09;;;;;;;6.93;4.87;;;22.90;99.90;;;;;;4974164;28;20447;-80
2023/10/12 11:52:37;;;;;;;9.37;5.13;;;22.80;99.90;;;;;;4935502;28;20438;-79
2023/10/12 11:55:07;;;;;;;11.83;5.73;;;22.60;99.90;;;;;;4975688;28;20444;-80
2023/10/12 11:57:40;;;;;;;12.07;4.87;;;22.50;99.90;;;;;;4976224;28;20424;-79
2023/10/12 12:00:14;;;;;;;16.00;5.40;;;22.30;99.90;;;;;;4976486;28;20871;-79
2023/10/12 12:02:41;;;;;;;9.87;5.23;;;22.10;99.90;;;;;;4976035;28;20950;-79
2023/10/12 12:05:11;;;;;;;7.90;4.90;;;21.90;99.90;;;;;;4974210;28;20467;-80
2023/10/12 12:07:37;;;;;;;9.70;5.80;;;21.70;99.90;;;;;;4975922;28;20431;-80
2023/10/12 12:10:03;;;;;;;8.70;5.70;;;21.60;99.90;;;;;;4976109;28;20463;-80
2023/10/12 12:12:28;;;;;;;11.73;5.87;;;21.50;1.00;;;;;;4977537;28;20982;-80
2023/10/12 12:14:54;;;;;;;15.53;5.33;;;21.60;1.00;;;;;;4977273;28;20448;-80
2023/10/12 12:17:19;;;;;;;10.70;6.43;;;21.60;1.00;;;;;;4978083;28;20271;-80
2023/10/12 12:19:45;;;;;;;10.20;5.30;;;21.40;1.00;;;;;;4976456;28;20212;-79
2023/10/12 12:22:13;;;;;;;11.50;5.60;;;21.20;1.00;;;;;;4975104;28;20196;-79
2023/10/12 12:24:41;;;;;;;19.23;6.20;;;21.10;1.00;;;;;;4976094;28;20693;-79
2023/10/12 12:27:32;;;;;;;7.40;6.00;;;21.00;12.80;;;;;;4976683;28;20522;-79
2023/10/12 12:29:54;;;;;;;12.97;7.60;;;20.90;99.90;;;;;;4974919;28;20432;-79
2023/10/12 12:32:20;;;;;;;10.07;5.87;;;20.80;99.90;;;;;;4976656;28;20420;-79
2023/10/12 12:34:47;;;;;;;11.80;7.00;;;20.80;1.00;;;;;;4977024;28;20463;-79
2023/10/12 12:37:16;;;;;;;9.93;6.17;;;20.80;1.00;;;;;;4969964;28;20958;-80
2023/10/12 12:39:42;;;;;;;15.77;7.17;;;20.90;1.00;;;;;;4974364;28;20475;-79
2023/10/12 12:42:11;;;;;;;10.27;6.50;;;21.00;1.00;;;;;;4973774;28;20432;-79
2023/10/12 12:44:37;;;;;;;10.67;6.17;;;21.10;1.00;;;;;;4975529;28;20514;-79
2023/10/12 12:47:06;;;;;;;16.60;7.23;;;21.20;1.00;;;;;;4976232;28;20423;-79
2023/10/12 12:49:32;;;;;;;11.77;6.17;;;21.30;99.90;;;;;;4975944;28;20829;-78
2023/10/12 12:51:58;;;;;;;13.53;7.07;;;21.40;99.90;;;;;;4968562;28;20438;-80
2023/10/12 12:54:24;;;;;;;14.30;7.00;;;21.50;99.90;;;;;;4976424;28;20462;-80
2023/10/12 12:56:53;;;;;;;9.97;6.90;;;21.50;99.90;;;;;;4975376;28;20184;-79
2023/10/12 12:59:23;;;;;;;12.90;7.80;;;21.70;99.90;;;;;;4977616;28;20459;-80
2023/10/12 13:01:53;;;;;;;10.97;7.20;;;21.90;23.40;;;;;;4978205;28;20494;-78
2023/10/12 13:04:19;;;;;;;14.57;7.60;;;21.70;1.00;;;;;;4978172;28;21007;-78
2023/10/12 13:06:44;;;;;;;11.80;7.17;;;21.60;59.50;;;;;;4977471;28;20420;-78
2023/10/12 13:09:33;;;;;;;11.20;7.23;;;21.70;25.30;;;;;;4977107;28;20718;-79
2023/10/12 13:11:56;;;;;;;9.23;6.47;;;21.80;60.70;;;;;;4978087;28;20448;-78
2023/10/12 13:14:22;;;;;;;16.70;6.50;;;21.80;14.90;;;;;;4975209;28;20818;-79
2023/10/12 13:16:49;;;;;;;13.53;7.10;;;21.70;1.00;;;;;;4978541;28;20443;-78
2023/10/12 13:19:17;;;;;;;11.37;5.97;;;21.60;1.00;;;;;;4976022;28;20275;-78
2023/10/12 13:21:44;;;;;;;10.90;6.03;;;21.40;7.00;;;;;;4976715;28;20542;-78
2023/10/12 13:24:12;;;;;;;13.83;6.67;;;21.10;7.80;;;;;;4976434;28;20459;-78
2023/10/12 13:26:43;;;;;;;13.60;6.70;;;20.80;99.90;;;;;;4977011;28;20458;-78
2023/10/12 13:29:12;;;;;;;9.63;5.70;;;20.70;99.90;;;;;;4976573;28;20929;-78
2023/10/12 13:31:39;;;;;;;17.03;6.47;;;20.50;99.90;;;;;;4975960;28;20980;-78
2023/10/12 13:34:05;;;;;;;9.47;6.00;;;20.40;1.00;;;;;;4973092;28;20502;-78
2023/10/12 13:36:33;;;;;;;16.30;6.50;;;20.30;1.00;;;;;;4976388;28;20424;-77
2023/10/12 13:38:59;;;;;;;8.03;6.30;;;20.30;1.00;;;;;;4974843;28;20562;-78
2023/10/12 13:41:25;;;;;;;13.03;6.70;;;20.20;1.00;;;;;;4976524;28;20523;-78
2023/10/12 13:43:51;;;;;;;8.47;5.70;;;20.20;99.90;;;;;;4974786;28;20547;-78
2023/10/12 13:46:16;;;;;;;10.73;5.60;;;20.10;1.00;;;;;;4976102;28;20806;-78
2023/10/12 13:48:42;;;;;;;8.77;6.20;;;20.00;1.00;;;;;;4976196;28;20255;-78
2023/10/12 13:51:08;;;;;;;7.23;5.30;;;19.90;1.00;;;;;;4971677;28;20193;-78
2023/10/12 13:53:38;;;;;;;10.77;6.90;;;20.00;1.00;;;;;;4975488;28;20278;-78
2023/10/12 13:56:08;;;;;;;9.77;5.80;;;20.10;1.00;;;;;;4975764;28;20432;-78
2023/10/12 13:58:36;;;;;;;13.80;6.23;;;20.10;99.90;;;;;;4976677;28;20988;-78
2023/10/12 14:01:03;;;;;;;10.90;5.30;;;20.10;1.00;;;;;;4975307;28;20518;-79
2023/10/12 14:03:34;;;;;;;16.33;6.43;;;20.20;99.90;;;;;;4969328;28;20518;-78
2023/10/12 14:06:00;;;;;;;12.37;6.40;;;20.40;1.00;;;;;;4974363;28;21254;-78
2023/10/12 14:08:28;;;;;;;9.20;5.90;;;20.50;1.00;;;;;;4976660;28;20499;-78
2023/10/12 14:10:54;;;;;;;12.10;5.83;;;20.60;1.00;;;;;;4975134;28;20420;-78
2023/10/12 14:13:20;;;;;;;6.93;5.70;;;20.60;1.00;;;;;;4975545;28;20440;-78
2023/10/12 14:15:47;;;;;;;10.73;5.37;;;20.70;1.00;;;;;;4976430;28;20432;-79
2023/10/12 14:18:16;;;;;;;12.63;6.30;;;20.80;99.90;;;;;;4977953;28;20200;-78
2023/10/12 14:20:45;;;;;;;14.83;6.23;;;20.80;99.90;;;;;;4978089;28;20949;-79
2023/10/12 14:23:12;;;;;;;9.50;6.27;;;20.70;99.90;;;;;;4972719;28;21310;-79
2023/10/12 14:25:42;;;;;;;10.03;5.40;;;20.70;99.90;;;;;;4977153;28;20416;-79
2023/10/12 14:28:09;;;;;;;9.00;6.30;;;20.70;99.90;;;;;;4974758;28;20515;-78
2023/10/12 14:30:36;;;;;;;8.93;5.20;;;20.70;99.90;;;;;;4975622;28;20420;-80
2023/10/12 14:33:03;;;;;;;43.00;31.53;;;20.70;99.90;;;;;;4967670;28;20466;-78